createdAt,value
2022-08-11T00:02:15.371Z,15.9
2022-08-11T00:08:12.891Z,15.9
2022-08-11T00:13:54.569Z,15.8
2022-08-11T00:20:31.281Z,15.8
2022-08-11T00:27:11.366Z,15.8
2022-08-11T00:32:47.811Z,15.8
2022-08-11T00:39:44.932Z,15.8
2022-08-11T00:45:28.238Z,15.7
2022-08-11T00:50:55.093Z,15.7
2022-08-11T00:57:09.086Z,15.6
2022-08-11T01:03:39.939Z,15.6
2022-08-11T01:09:46.448Z,15.5
2022-08-11T01:15:55.763Z,15.4
2022-08-11T01:22:45.655Z,15.4
2022-08-11T01:28:49.306Z,15.3
2022-08-11T01:34:25.726Z,15.2
2022-08-11T01:40:04.756Z,15.1
2022-08-11T01:45:28.590Z,15.1
2022-08-11T01:52:01.217Z,15
2022-08-11T01:57:22.095Z,14.9
2022-08-11T02:03:22.859Z,14.8
2022-08-11T02:09:11.666Z,14.8
2022-08-11T02:20:46.354Z,14.6
2022-08-11T02:27:18.929Z,14.5
2022-08-11T02:34:14.812Z,14.4
2022-08-11T02:40:06.805Z,14.3
2022-08-11T02:45:52.277Z,14.2
2022-08-11T02:51:49.908Z,14.1
2022-08-11T02:57:58.555Z,14
2022-08-11T03:03:28.271Z,13.9
2022-08-11T03:09:31.161Z,13.8
2022-08-11T03:14:57.633Z,13.8
2022-08-11T03:20:21.463Z,13.6
2022-08-11T03:26:46.850Z,13.6
2022-08-11T03:32:17.497Z,13.4
2022-08-11T03:38:30.686Z,13.4
2022-08-11T03:45:08.943Z,13.3
2022-08-11T03:50:49.784Z,13.2
2022-08-11T03:56:39.625Z,13.1
2022-08-11T04:02:22.359Z,13.1
2022-08-11T04:08:03.457Z,13.1
2022-08-11T04:14:13.143Z,13.1
2022-08-11T04:19:58.968Z,13.1
2022-08-11T04:27:19.161Z,13.1
2022-08-11T04:34:30.221Z,13.3
2022-08-11T04:40:10.464Z,13.4
2022-08-11T04:46:06.918Z,13.6
2022-08-11T04:52:54.285Z,14.1
2022-08-11T04:58:33.997Z,14.6
2022-08-11T05:04:18.332Z,15.1
2022-08-11T05:09:54.468Z,15.9
2022-08-11T05:15:22.440Z,16.8
2022-08-11T05:21:04.810Z,17.8
2022-08-11T05:28:14.282Z,19.4
2022-08-11T05:34:12.843Z,20.9
2022-08-11T05:41:16.529Z,22.9
2022-08-11T05:48:22.989Z,25.3
2022-08-11T05:55:10.853Z,27.6
2022-08-11T06:01:17.550Z,29.8
2022-08-11T06:07:11.524Z,37.4
2022-08-11T06:13:11.268Z,37.8
2022-08-11T06:18:50.503Z,36.9
2022-08-11T06:24:38.478Z,37.3
2022-08-11T06:30:50.185Z,44.3
2022-08-11T06:36:32.540Z,45.2
2022-08-11T06:42:13.157Z,45.9
2022-08-11T06:47:57.122Z,46.6
2022-08-11T06:54:21.060Z,47.4
2022-08-11T07:01:14.430Z,47.9
2022-08-11T07:06:41.723Z,48.6
2022-08-11T07:14:22.930Z,49.6
2022-08-11T07:20:44.770Z,50.5
2022-08-11T07:27:37.614Z,51.4
2022-08-11T07:33:21.164Z,52.1
2022-08-11T07:39:35.227Z,52.5
2022-08-11T07:45:14.861Z,53.3
2022-08-11T07:50:55.953Z,53.9
2022-08-11T07:58:34.083Z,54.8
2022-08-11T08:05:25.349Z,55.5
2022-08-11T08:11:13.300Z,56.2
2022-08-11T08:16:53.465Z,56.1
2022-08-11T08:23:33.840Z,56.1
2022-08-11T08:29:31.503Z,56.7
2022-08-11T08:35:10.565Z,56.1
2022-08-11T08:41:32.911Z,56.8
2022-08-11T08:48:20.843Z,56.6
2022-08-11T08:55:03.303Z,57.6
2022-08-11T09:01:03.547Z,58.1
2022-08-11T09:12:54.817Z,59.1
2022-08-11T09:18:34.009Z,59.6
2022-08-11T09:25:40.780Z,60
2022-08-11T09:31:21.539Z,60.4
2022-08-11T09:37:00.624Z,60.8
2022-08-11T09:43:34.639Z,61.2
2022-08-11T09:49:25.403Z,61.6
2022-08-11T09:56:05.498Z,61.9
2022-08-11T10:02:14.919Z,62.4
2022-08-11T10:08:06.513Z,62.8
2022-08-11T10:15:09.702Z,63.3
2022-08-11T10:21:36.647Z,63.6
2022-08-11T10:27:39.236Z,64
2022-08-11T10:35:52.163Z,64.6
2022-08-11T10:42:35.323Z,64.9
2022-08-11T10:49:31.011Z,65.3
2022-08-11T10:55:33.637Z,65.4
2022-08-11T11:01:34.092Z,65.8
2022-08-11T11:08:28.913Z,66.1
2022-08-11T11:14:13.581Z,66.4
2022-08-11T11:20:34.992Z,66.6
2022-08-11T11:26:16.933Z,66.9
2022-08-11T11:32:10.280Z,67.1
2022-08-11T11:38:54.458Z,67
2022-08-11T11:44:33.012Z,67.3
2022-08-11T11:50:36.773Z,67.6
2022-08-11T11:56:21.307Z,67.8
2022-08-11T12:02:28.920Z,68
2022-08-11T12:08:28.558Z,68.2
2022-08-11T12:14:11.021Z,68.4
2022-08-11T12:21:25.899Z,68.6
2022-08-11T12:29:23.960Z,68.7
2022-08-11T12:35:09.092Z,67.3
2022-08-11T12:43:21.294Z,66
2022-08-11T12:50:23.004Z,65
2022-08-11T12:56:57.771Z,62.8
2022-08-11T13:02:51.872Z,59.8
2022-08-11T13:08:45.873Z,56.6
2022-08-11T13:15:42.549Z,55.6
2022-08-11T13:21:20.297Z,60.9
2022-08-11T13:27:39.052Z,60.4
2022-08-11T13:33:23.411Z,58.8
2022-08-11T13:40:23.746Z,61.9
2022-08-11T13:46:18.778Z,59.1
2022-08-11T13:51:57.775Z,57.9
2022-08-11T13:59:18.366Z,60.9
2022-08-11T14:07:20.700Z,57.8
2022-08-11T14:14:37.296Z,56.2
2022-08-11T14:21:16.479Z,54.9
2022-08-11T14:28:47.244Z,53.8
2022-08-11T14:35:27.353Z,52.4
2022-08-11T14:41:15.085Z,51.4
2022-08-11T14:48:19.519Z,50.3
2022-08-11T14:54:36.948Z,49.2
2022-08-11T15:00:49.777Z,48.3
2022-08-11T15:07:33.699Z,47.2
2022-08-11T15:14:00.755Z,46.1
2022-08-11T15:20:01.550Z,45
2022-08-11T15:25:41.359Z,43.7
2022-08-11T15:31:48.596Z,42.1
2022-08-11T15:37:44.764Z,40.6
2022-08-11T15:44:07.643Z,39.1
2022-08-11T15:50:50.171Z,37.7
2022-08-11T15:56:36.173Z,36.5
2022-08-11T16:03:15.103Z,35.3
2022-08-11T16:10:50.296Z,34
2022-08-11T16:16:33.753Z,33.1
2022-08-11T16:22:28.395Z,32.3
2022-08-11T16:31:07.686Z,31.3
2022-08-11T16:37:36.420Z,30.8
2022-08-11T16:44:05.333Z,30.4
2022-08-11T16:50:55.355Z,30
2022-08-11T16:58:11.057Z,29.6
2022-08-11T17:03:57.109Z,29.3
2022-08-11T17:10:31.636Z,28.8
2022-08-11T17:16:20.598Z,28.5
2022-08-11T17:23:29.732Z,28.1
2022-08-11T17:29:31.230Z,27.7
2022-08-11T17:35:49.626Z,27.3
2022-08-11T17:41:40.421Z,27
2022-08-11T17:47:25.582Z,26.7
2022-08-11T17:53:18.357Z,26.3
2022-08-11T18:00:05.815Z,25.9
2022-08-11T18:06:15.283Z,25.6
2022-08-11T18:12:48.715Z,25.3
2022-08-11T18:24:40.642Z,24.8
2022-08-11T18:30:20.315Z,24.5
2022-08-11T18:37:22.091Z,24.2
2022-08-11T18:43:27.074Z,24
2022-08-11T18:50:01.052Z,23.8
2022-08-11T18:56:41.431Z,23.5
2022-08-11T19:02:27.579Z,23.3
2022-08-11T19:09:37.353Z,22.9
2022-08-11T19:15:31.943Z,22.7
2022-08-11T19:21:31.941Z,22.5
2022-08-11T19:26:58.266Z,22.3
2022-08-11T19:33:11.694Z,22.1
2022-08-11T19:39:29.325Z,21.9
2022-08-11T19:46:09.062Z,21.7
2022-08-11T19:52:17.785Z,21.5
2022-08-11T19:57:56.053Z,21.4
2022-08-11T20:04:04.482Z,21.2
2022-08-11T20:10:43.909Z,21
2022-08-11T20:16:35.480Z,20.8
2022-08-11T20:22:37.191Z,20.7
2022-08-11T20:28:50.217Z,20.5
2022-08-11T20:34:22.319Z,20.4
2022-08-11T20:40:16.014Z,20.3
2022-08-11T20:47:29.942Z,20.1
2022-08-11T20:53:59.668Z,20.1
2022-08-11T21:13:18.142Z,19.8
2022-08-11T21:21:16.332Z,19.8
2022-08-11T21:27:38.287Z,19.7
2022-08-11T21:33:17.155Z,19.7
2022-08-11T21:39:03.319Z,19.6
2022-08-11T21:44:57.521Z,19.6
2022-08-11T21:50:57.643Z,19.5
2022-08-11T21:56:35.533Z,19.4
2022-08-11T22:02:23.577Z,19.4
2022-08-11T22:07:57.532Z,19.4
2022-08-11T22:15:20.213Z,19.3
2022-08-11T22:20:56.733Z,19.2
2022-08-11T22:28:18.584Z,19.1
2022-08-11T22:34:44.972Z,19
2022-08-11T22:40:40.858Z,18.9
2022-08-11T22:46:14.322Z,18.9
2022-08-11T22:51:58.395Z,18.8
2022-08-11T22:57:55.231Z,18.8
2022-08-11T23:03:53.859Z,18.8
2022-08-11T23:15:40.799Z,18.6
2022-08-11T23:22:36.749Z,18.6
2022-08-11T23:28:26.634Z,18.6
2022-08-11T23:35:39.448Z,18.5
2022-08-11T23:41:50.858Z,18.5
2022-08-11T23:47:38.759Z,18.5
2022-08-11T23:53:41.600Z,18.4
2022-08-11T23:59:32.609Z,18.4
